sensor_id;sensor_type;location;lat;lon;timestamp;P1;durP1;ratioP1;P2;durP2;ratioP2
6505;SDS011;3286;49.858;8.768;2023-03-01T00:01:51;11.10;;;5.70;;
6505;SDS011;3286;49.858;8.768;2023-03-01T00:04:18;10.00;;;5.87;;
6505;SDS011;3286;49.858;8.768;2023-03-01T00:06:45;9.53;;;6.30;;
6505;SDS011;3286;49.858;8.768;2023-03-01T00:09:12;11.07;;;5.90;;
6505;SDS011;3286;49.858;8.768;2023-03-01T00:11:40;9.67;;;6.03;;
6505;SDS011;3286;49.858;8.768;2023-03-01T00:14:07;11.50;;;6.93;;
6505;SDS011;3286;49.858;8.768;2023-03-01T00:16:34;11.97;;;6.70;;
6505;SDS011;3286;49.858;8.768;2023-03-01T00:19:03;13.27;;;6.20;;
6505;SDS011;3286;49.858;8.768;2023-03-01T00:21:30;9.60;;;6.07;;
6505;SDS011;3286;49.858;8.768;2023-03-01T00:23:58;13.40;;;6.27;;
6505;SDS011;3286;49.858;8.768;2023-03-01T00:26:26;8.63;;;5.70;;
6505;SDS011;3286;49.858;8.768;2023-03-01T00:28:56;8.27;;;5.70;;
6505;SDS011;3286;49.858;8.768;2023-03-01T00:31:24;10.70;;;6.10;;
6505;SDS011;3286;49.858;8.768;2023-03-01T00:33:52;11.33;;;5.70;;
6505;SDS011;3286;49.858;8.768;2023-03-01T00:36:22;8.73;;;6.23;;
6505;SDS011;3286;49.858;8.768;2023-03-01T00:38:50;9.57;;;6.60;;
6505;SDS011;3286;49.858;8.768;2023-03-01T00:41:17;10.67;;;6.30;;
6505;SDS011;3286;49.858;8.768;2023-03-01T00:43:45;9.83;;;6.30;;
6505;SDS011;3286;49.858;8.768;2023-03-01T00:46:14;14.73;;;6.53;;
6505;SDS011;3286;49.858;8.768;2023-03-01T00:48:42;10.30;;;6.17;;
6505;SDS011;3286;49.858;8.768;2023-03-01T00:51:10;9.17;;;5.97;;
6505;SDS011;3286;49.858;8.768;2023-03-01T00:53:38;8.40;;;5.47;;
6505;SDS011;3286;49.858;8.768;2023-03-01T00:56:06;10.80;;;6.17;;
6505;SDS011;3286;49.858;8.768;2023-03-01T00:58:35;9.37;;;6.37;;
6505;SDS011;3286;49.858;8.768;2023-03-01T01:01:06;11.37;;;6.47;;
6505;SDS011;3286;49.858;8.768;2023-03-01T01:03:43;9.53;;;6.20;;
6505;SDS011;3286;49.858;8.768;2023-03-01T01:06:14;11.43;;;7.27;;
6505;SDS011;3286;49.858;8.768;2023-03-01T01:08:42;10.73;;;5.77;;
6505;SDS011;3286;49.858;8.768;2023-03-01T01:11:09;13.60;;;6.80;;
6505;SDS011;3286;49.858;8.768;2023-03-01T01:13:36;13.33;;;7.17;;
6505;SDS011;3286;49.858;8.768;2023-03-01T01:16:03;12.50;;;6.87;;
6505;SDS011;3286;49.858;8.768;2023-03-01T01:18:30;12.13;;;6.53;;
6505;SDS011;3286;49.858;8.768;2023-03-01T01:21:02;10.83;;;6.37;;
6505;SDS011;3286;49.858;8.768;2023-03-01T01:23:30;12.33;;;7.00;;
6505;SDS011;3286;49.858;8.768;2023-03-01T01:25:56;11.70;;;6.70;;
6505;SDS011;3286;49.858;8.768;2023-03-01T01:28:23;11.03;;;7.30;;
6505;SDS011;3286;49.858;8.768;2023-03-01T01:30:49;12.20;;;6.70;;
6505;SDS011;3286;49.858;8.768;2023-03-01T01:33:16;10.20;;;6.13;;
6505;SDS011;3286;49.858;8.768;2023-03-01T01:35:44;10.33;;;6.37;;
6505;SDS011;3286;49.858;8.768;2023-03-01T01:38:13;8.83;;;6.43;;
6505;SDS011;3286;49.858;8.768;2023-03-01T01:40:42;8.97;;;5.57;;
6505;SDS011;3286;49.858;8.768;2023-03-01T01:43:12;9.03;;;5.70;;
6505;SDS011;3286;49.858;8.768;2023-03-01T01:45:45;11.17;;;6.13;;
6505;SDS011;3286;49.858;8.768;2023-03-01T01:48:13;9.60;;;6.20;;
6505;SDS011;3286;49.858;8.768;2023-03-01T01:50:42;10.30;;;6.23;;
6505;SDS011;3286;49.858;8.768;2023-03-01T01:53:12;12.37;;;6.27;;
6505;SDS011;3286;49.858;8.768;2023-03-01T01:55:44;12.40;;;7.03;;
6505;SDS011;3286;49.858;8.768;2023-03-01T01:58:14;12.77;;;6.67;;
6505;SDS011;3286;49.858;8.768;2023-03-01T02:00:43;13.23;;;7.30;;
6505;SDS011;3286;49.858;8.768;2023-03-01T02:03:11;15.73;;;6.43;;
6505;SDS011;3286;49.858;8.768;2023-03-01T02:05:43;10.57;;;6.60;;
6505;SDS011;3286;49.858;8.768;2023-03-01T02:08:16;12.80;;;6.63;;
6505;SDS011;3286;49.858;8.768;2023-03-01T02:10:45;12.67;;;6.60;;
6505;SDS011;3286;49.858;8.768;2023-03-01T02:13:14;12.27;;;6.43;;
6505;SDS011;3286;49.858;8.768;2023-03-01T02:15:40;10.37;;;6.83;;
6505;SDS011;3286;49.858;8.768;2023-03-01T02:18:09;12.30;;;6.03;;
6505;SDS011;3286;49.858;8.768;2023-03-01T02:20:39;9.73;;;5.73;;
6505;SDS011;3286;49.858;8.768;2023-03-01T02:23:15;11.30;;;6.20;;
6505;SDS011;3286;49.858;8.768;2023-03-01T02:25:46;10.33;;;6.40;;
6505;SDS011;3286;49.858;8.768;2023-03-01T02:28:21;12.70;;;6.40;;
6505;SDS011;3286;49.858;8.768;2023-03-01T02:30:50;9.97;;;6.07;;
6505;SDS011;3286;49.858;8.768;2023-03-01T02:33:36;10.20;;;5.87;;
6505;SDS011;3286;49.858;8.768;2023-03-01T02:36:06;11.10;;;6.13;;
6505;SDS011;3286;49.858;8.768;2023-03-01T02:38:36;12.13;;;6.77;;
6505;SDS011;3286;49.858;8.768;2023-03-01T02:41:03;10.13;;;6.43;;
6505;SDS011;3286;49.858;8.768;2023-03-01T02:43:33;10.20;;;6.03;;
6505;SDS011;3286;49.858;8.768;2023-03-01T02:46:02;9.80;;;6.20;;
6505;SDS011;3286;49.858;8.768;2023-03-01T02:48:38;11.43;;;6.53;;
6505;SDS011;3286;49.858;8.768;2023-03-01T02:51:09;9.00;;;5.63;;
6505;SDS011;3286;49.858;8.768;2023-03-01T02:53:45;12.63;;;6.40;;
6505;SDS011;3286;49.858;8.768;2023-03-01T02:56:19;10.17;;;6.50;;
6505;SDS011;3286;49.858;8.768;2023-03-01T02:58:47;11.13;;;6.57;;
6505;SDS011;3286;49.858;8.768;2023-03-01T03:01:16;11.73;;;6.53;;
6505;SDS011;3286;49.858;8.768;2023-03-01T03:03:43;9.17;;;6.43;;
6505;SDS011;3286;49.858;8.768;2023-03-01T03:06:10;13.93;;;6.73;;
6505;SDS011;3286;49.858;8.768;2023-03-01T03:08:37;12.77;;;6.73;;
6505;SDS011;3286;49.858;8.768;2023-03-01T03:11:04;10.83;;;6.30;;
6505;SDS011;3286;49.858;8.768;2023-03-01T03:13:30;12.67;;;6.47;;
6505;SDS011;3286;49.858;8.768;2023-03-01T03:15:58;10.80;;;6.63;;
6505;SDS011;3286;49.858;8.768;2023-03-01T03:18:25;10.20;;;6.40;;
6505;SDS011;3286;49.858;8.768;2023-03-01T03:20:52;9.83;;;6.20;;
6505;SDS011;3286;49.858;8.768;2023-03-01T03:23:20;12.47;;;6.30;;
6505;SDS011;3286;49.858;8.768;2023-03-01T03:25:47;15.60;;;7.00;;
6505;SDS011;3286;49.858;8.768;2023-03-01T03:28:15;11.77;;;6.77;;
6505;SDS011;3286;49.858;8.768;2023-03-01T03:30:42;11.43;;;6.77;;
6505;SDS011;3286;49.858;8.768;2023-03-01T03:33:10;12.03;;;6.30;;
6505;SDS011;3286;49.858;8.768;2023-03-01T03:35:39;12.77;;;7.30;;
6505;SDS011;3286;49.858;8.768;2023-03-01T03:38:09;12.40;;;6.63;;
6505;SDS011;3286;49.858;8.768;2023-03-01T03:40:41;10.07;;;6.70;;
6505;SDS011;3286;49.858;8.768;2023-03-01T03:43:09;11.70;;;6.57;;
6505;SDS011;3286;49.858;8.768;2023-03-01T03:45:37;13.37;;;7.17;;
6505;SDS011;3286;49.858;8.768;2023-03-01T03:48:05;14.30;;;6.30;;
6505;SDS011;3286;49.858;8.768;2023-03-01T03:50:35;13.23;;;7.17;;
6505;SDS011;3286;49.858;8.768;2023-03-01T03:53:03;12.57;;;6.93;;
6505;SDS011;3286;49.858;8.768;2023-03-01T03:55:31;11.07;;;7.03;;
6505;SDS011;3286;49.858;8.768;2023-03-01T03:57:59;12.13;;;6.67;;
6505;SDS011;3286;49.858;8.768;2023-03-01T04:00:32;12.30;;;7.10;;
6505;SDS011;3286;49.858;8.768;2023-03-01T04:02:59;12.93;;;6.63;;
6505;SDS011;3286;49.858;8.768;2023-03-01T04:05:26;10.73;;;5.97;;
6505;SDS011;3286;49.858;8.768;2023-03-01T04:07:55;10.83;;;6.67;;
6505;SDS011;3286;49.858;8.768;2023-03-01T04:10:27;11.13;;;6.83;;
6505;SDS011;3286;49.858;8.768;2023-03-01T04:12:55;13.23;;;7.77;;
6505;SDS011;3286;49.858;8.768;2023-03-01T04:15:22;9.17;;;6.97;;
6505;SDS011;3286;49.858;8.768;2023-03-01T04:17:51;15.03;;;7.07;;
6505;SDS011;3286;49.858;8.768;2023-03-01T04:20:19;10.73;;;6.70;;
6505;SDS011;3286;49.858;8.768;2023-03-01T04:22:50;13.50;;;7.23;;
6505;SDS011;3286;49.858;8.768;2023-03-01T04:25:19;11.23;;;7.03;;
6505;SDS011;3286;49.858;8.768;2023-03-01T04:27:46;11.63;;;7.27;;
6505;SDS011;3286;49.858;8.768;2023-03-01T04:30:13;10.97;;;6.80;;
6505;SDS011;3286;49.858;8.768;2023-03-01T04:32:40;12.83;;;7.30;;
6505;SDS011;3286;49.858;8.768;2023-03-01T04:35:07;13.23;;;6.97;;
6505;SDS011;3286;49.858;8.768;2023-03-01T04:37:34;11.43;;;7.00;;
6505;SDS011;3286;49.858;8.768;2023-03-01T04:40:01;13.57;;;7.27;;
6505;SDS011;3286;49.858;8.768;2023-03-01T04:42:38;14.67;;;7.20;;
6505;SDS011;3286;49.858;8.768;2023-03-01T04:45:05;14.00;;;7.87;;
6505;SDS011;3286;49.858;8.768;2023-03-01T04:47:38;13.13;;;6.93;;
6505;SDS011;3286;49.858;8.768;2023-03-01T04:50:05;11.00;;;6.97;;
6505;SDS011;3286;49.858;8.768;2023-03-01T04:52:32;12.50;;;7.87;;
6505;SDS011;3286;49.858;8.768;2023-03-01T04:54:59;11.70;;;7.40;;
6505;SDS011;3286;49.858;8.768;2023-03-01T04:57:26;11.30;;;6.83;;
6505;SDS011;3286;49.858;8.768;2023-03-01T04:59:54;14.17;;;7.20;;
6505;SDS011;3286;49.858;8.768;2023-03-01T05:02:21;12.07;;;7.33;;
6505;SDS011;3286;49.858;8.768;2023-03-01T05:04:48;11.53;;;7.27;;
6505;SDS011;3286;49.858;8.768;2023-03-01T05:07:15;12.10;;;7.17;;
6505;SDS011;3286;49.858;8.768;2023-03-01T05:09:45;14.17;;;7.67;;
6505;SDS011;3286;49.858;8.768;2023-03-01T05:12:12;14.57;;;7.90;;
6505;SDS011;3286;49.858;8.768;2023-03-01T05:14:38;12.93;;;7.67;;
6505;SDS011;3286;49.858;8.768;2023-03-01T05:17:06;10.20;;;6.93;;
6505;SDS011;3286;49.858;8.768;2023-03-01T05:19:34;12.60;;;7.23;;
6505;SDS011;3286;49.858;8.768;2023-03-01T05:22:00;16.50;;;8.83;;
6505;SDS011;3286;49.858;8.768;2023-03-01T05:24:29;12.70;;;7.53;;
6505;SDS011;3286;49.858;8.768;2023-03-01T05:26:57;16.90;;;8.67;;
6505;SDS011;3286;49.858;8.768;2023-03-01T05:29:24;15.97;;;7.47;;
6505;SDS011;3286;49.858;8.768;2023-03-01T05:31:52;14.43;;;7.80;;
6505;SDS011;3286;49.858;8.768;2023-03-01T05:34:22;17.30;;;7.83;;
6505;SDS011;3286;49.858;8.768;2023-03-01T05:36:50;14.57;;;7.60;;
6505;SDS011;3286;49.858;8.768;2023-03-01T05:39:18;14.13;;;8.20;;
6505;SDS011;3286;49.858;8.768;2023-03-01T05:41:46;12.07;;;7.13;;
6505;SDS011;3286;49.858;8.768;2023-03-01T05:44:13;11.00;;;7.47;;
6505;SDS011;3286;49.858;8.768;2023-03-01T05:46:39;12.23;;;7.60;;
6505;SDS011;3286;49.858;8.768;2023-03-01T05:49:06;14.93;;;7.23;;
6505;SDS011;3286;49.858;8.768;2023-03-01T05:51:34;15.50;;;8.50;;
6505;SDS011;3286;49.858;8.768;2023-03-01T05:54:01;21.50;;;8.50;;
6505;SDS011;3286;49.858;8.768;2023-03-01T05:56:27;25.60;;;10.63;;
6505;SDS011;3286;49.858;8.768;2023-03-01T05:58:54;13.23;;;8.13;;
6505;SDS011;3286;49.858;8.768;2023-03-01T06:01:20;11.20;;;7.67;;
6505;SDS011;3286;49.858;8.768;2023-03-01T06:03:47;13.07;;;7.67;;
6505;SDS011;3286;49.858;8.768;2023-03-01T06:06:14;13.30;;;7.97;;
6505;SDS011;3286;49.858;8.768;2023-03-01T06:08:42;15.27;;;8.23;;
6505;SDS011;3286;49.858;8.768;2023-03-01T06:11:09;13.37;;;8.07;;
6505;SDS011;3286;49.858;8.768;2023-03-01T06:13:35;17.03;;;8.30;;
6505;SDS011;3286;49.858;8.768;2023-03-01T06:16:03;14.57;;;7.33;;
6505;SDS011;3286;49.858;8.768;2023-03-01T06:18:31;14.83;;;8.60;;
6505;SDS011;3286;49.858;8.768;2023-03-01T06:20:57;20.20;;;8.70;;
6505;SDS011;3286;49.858;8.768;2023-03-01T06:23:24;19.87;;;9.57;;
6505;SDS011;3286;49.858;8.768;2023-03-01T06:25:52;13.73;;;7.77;;
6505;SDS011;3286;49.858;8.768;2023-03-01T06:28:19;13.47;;;8.70;;
6505;SDS011;3286;49.858;8.768;2023-03-01T06:30:46;16.50;;;7.77;;
6505;SDS011;3286;49.858;8.768;2023-03-01T06:33:14;14.20;;;7.63;;
6505;SDS011;3286;49.858;8.768;2023-03-01T06:35:40;17.47;;;7.83;;
6505;SDS011;3286;49.858;8.768;2023-03-01T06:38:07;16.03;;;8.60;;
6505;SDS011;3286;49.858;8.768;2023-03-01T06:40:33;17.60;;;9.07;;
6505;SDS011;3286;49.858;8.768;2023-03-01T06:43:02;14.60;;;8.10;;
6505;SDS011;3286;49.858;8.768;2023-03-01T06:45:29;14.77;;;8.57;;
6505;SDS011;3286;49.858;8.768;2023-03-01T06:48:02;16.77;;;8.73;;
6505;SDS011;3286;49.858;8.768;2023-03-01T06:50:30;17.83;;;8.70;;
6505;SDS011;3286;49.858;8.768;2023-03-01T06:52:57;16.23;;;8.17;;
6505;SDS011;3286;49.858;8.768;2023-03-01T06:55:24;16.17;;;9.00;;
6505;SDS011;3286;49.858;8.768;2023-03-01T06:57:53;17.60;;;8.83;;
6505;SDS011;3286;49.858;8.768;2023-03-01T07:00:23;12.97;;;8.23;;
6505;SDS011;3286;49.858;8.768;2023-03-01T07:02:50;17.20;;;8.40;;
6505;SDS011;3286;49.858;8.768;2023-03-01T07:05:17;18.10;;;8.67;;
6505;SDS011;3286;49.858;8.768;2023-03-01T07:07:44;19.57;;;8.97;;
6505;SDS011;3286;49.858;8.768;2023-03-01T07:10:11;14.83;;;8.53;;
6505;SDS011;3286;49.858;8.768;2023-03-01T07:12:38;17.50;;;8.63;;
6505;SDS011;3286;49.858;8.768;2023-03-01T07:15:07;18.60;;;8.80;;
6505;SDS011;3286;49.858;8.768;2023-03-01T07:17:37;14.17;;;8.33;;
6505;SDS011;3286;49.858;8.768;2023-03-01T07:20:03;18.70;;;8.90;;
6505;SDS011;3286;49.858;8.768;2023-03-01T07:22:31;14.30;;;8.97;;
6505;SDS011;3286;49.858;8.768;2023-03-01T07:24:57;14.70;;;8.67;;
6505;SDS011;3286;49.858;8.768;2023-03-01T07:27:24;14.57;;;8.60;;
6505;SDS011;3286;49.858;8.768;2023-03-01T07:29:51;14.77;;;8.90;;
6505;SDS011;3286;49.858;8.768;2023-03-01T07:32:17;14.73;;;8.97;;
6505;SDS011;3286;49.858;8.768;2023-03-01T07:34:45;14.70;;;8.20;;
6505;SDS011;3286;49.858;8.768;2023-03-01T07:37:12;18.40;;;8.90;;
6505;SDS011;3286;49.858;8.768;2023-03-01T07:39:39;14.00;;;7.80;;
6505;SDS011;3286;49.858;8.768;2023-03-01T07:42:06;15.57;;;7.97;;
6505;SDS011;3286;49.858;8.768;2023-03-01T07:44:33;20.00;;;9.00;;
6505;SDS011;3286;49.858;8.768;2023-03-01T07:47:00;15.00;;;8.17;;
6505;SDS011;3286;49.858;8.768;2023-03-01T07:49:27;54.00;;;13.17;;
6505;SDS011;3286;49.858;8.768;2023-03-01T07:51:55;13.13;;;7.47;;
6505;SDS011;3286;49.858;8.768;2023-03-01T07:54:21;11.57;;;7.63;;
6505;SDS011;3286;49.858;8.768;2023-03-01T07:56:48;12.77;;;7.47;;
6505;SDS011;3286;49.858;8.768;2023-03-01T07:59:14;16.70;;;8.03;;
6505;SDS011;3286;49.858;8.768;2023-03-01T08:01:41;15.53;;;8.07;;
6505;SDS011;3286;49.858;8.768;2023-03-01T08:04:08;13.17;;;7.50;;
6505;SDS011;3286;49.858;8.768;2023-03-01T08:06:35;11.40;;;7.67;;
6505;SDS011;3286;49.858;8.768;2023-03-01T08:09:03;14.17;;;8.07;;
6505;SDS011;3286;49.858;8.768;2023-03-01T08:11:30;13.00;;;7.60;;
6505;SDS011;3286;49.858;8.768;2023-03-01T08:13:57;14.00;;;7.50;;
6505;SDS011;3286;49.858;8.768;2023-03-01T08:16:23;12.30;;;7.93;;
6505;SDS011;3286;49.858;8.768;2023-03-01T08:18:50;13.93;;;8.53;;
6505;SDS011;3286;49.858;8.768;2023-03-01T08:21:17;13.60;;;7.33;;
6505;SDS011;3286;49.858;8.768;2023-03-01T08:23:44;14.10;;;8.40;;
6505;SDS011;3286;49.858;8.768;2023-03-01T08:26:13;13.37;;;8.27;;
6505;SDS011;3286;49.858;8.768;2023-03-01T08:28:41;17.07;;;7.60;;
6505;SDS011;3286;49.858;8.768;2023-03-01T08:31:16;12.37;;;7.57;;
6505;SDS011;3286;49.858;8.768;2023-03-01T08:33:44;13.17;;;8.40;;
6505;SDS011;3286;49.858;8.768;2023-03-01T08:36:15;13.33;;;8.17;;
6505;SDS011;3286;49.858;8.768;2023-03-01T08:38:42;13.40;;;7.73;;
6505;SDS011;3286;49.858;8.768;2023-03-01T08:41:09;14.47;;;7.70;;
6505;SDS011;3286;49.858;8.768;2023-03-01T08:43:37;11.13;;;7.60;;
6505;SDS011;3286;49.858;8.768;2023-03-01T08:46:04;13.90;;;8.40;;
6505;SDS011;3286;49.858;8.768;2023-03-01T08:48:30;13.93;;;7.63;;
6505;SDS011;3286;49.858;8.768;2023-03-01T08:50:57;14.33;;;8.30;;
6505;SDS011;3286;49.858;8.768;2023-03-01T08:53:33;12.03;;;7.77;;
6505;SDS011;3286;49.858;8.768;2023-03-01T08:56:00;13.97;;;7.60;;
6505;SDS011;3286;49.858;8.768;2023-03-01T08:58:27;12.90;;;7.87;;
6505;SDS011;3286;49.858;8.768;2023-03-01T09:00:55;15.27;;;8.00;;
6505;SDS011;3286;49.858;8.768;2023-03-01T09:03:22;13.73;;;7.50;;
6505;SDS011;3286;49.858;8.768;2023-03-01T09:05:49;13.43;;;8.27;;
6505;SDS011;3286;49.858;8.768;2023-03-01T09:08:16;13.90;;;8.10;;
6505;SDS011;3286;49.858;8.768;2023-03-01T09:10:43;14.63;;;7.97;;
6505;SDS011;3286;49.858;8.768;2023-03-01T09:13:10;12.00;;;7.70;;
6505;SDS011;3286;49.858;8.768;2023-03-01T09:15:37;16.03;;;7.93;;
6505;SDS011;3286;49.858;8.768;2023-03-01T09:18:05;13.77;;;7.83;;
6505;SDS011;3286;49.858;8.768;2023-03-01T09:20:32;14.60;;;7.87;;
6505;SDS011;3286;49.858;8.768;2023-03-01T09:22:58;14.27;;;7.93;;
6505;SDS011;3286;49.858;8.768;2023-03-01T09:25:25;12.47;;;7.40;;
6505;SDS011;3286;49.858;8.768;2023-03-01T09:27:52;15.43;;;8.17;;
6505;SDS011;3286;49.858;8.768;2023-03-01T09:30:19;13.37;;;8.23;;
6505;SDS011;3286;49.858;8.768;2023-03-01T09:32:46;13.67;;;8.30;;
6505;SDS011;3286;49.858;8.768;2023-03-01T09:35:14;13.13;;;8.23;;
6505;SDS011;3286;49.858;8.768;2023-03-01T09:37:41;25.93;;;11.40;;
6505;SDS011;3286;49.858;8.768;2023-03-01T09:40:11;15.53;;;9.33;;
6505;SDS011;3286;49.858;8.768;2023-03-01T09:42:45;17.03;;;9.27;;
6505;SDS011;3286;49.858;8.768;2023-03-01T09:45:19;14.97;;;8.87;;
6505;SDS011;3286;49.858;8.768;2023-03-01T09:47:53;14.30;;;9.00;;
6505;SDS011;3286;49.858;8.768;2023-03-01T09:50:23;16.87;;;9.03;;
6505;SDS011;3286;49.858;8.768;2023-03-01T09:52:54;15.17;;;8.77;;
6505;SDS011;3286;49.858;8.768;2023-03-01T09:55:29;16.37;;;8.63;;
6505;SDS011;3286;49.858;8.768;2023-03-01T09:57:59;15.73;;;9.27;;
6505;SDS011;3286;49.858;8.768;2023-03-01T10:00:35;14.90;;;9.33;;
6505;SDS011;3286;49.858;8.768;2023-03-01T10:03:11;12.33;;;8.10;;
6505;SDS011;3286;49.858;8.768;2023-03-01T10:05:54;17.07;;;9.23;;
6505;SDS011;3286;49.858;8.768;2023-03-01T10:08:30;14.67;;;9.30;;
6505;SDS011;3286;49.858;8.768;2023-03-01T10:11:04;15.90;;;9.57;;
6505;SDS011;3286;49.858;8.768;2023-03-01T10:13:33;15.30;;;8.73;;
6505;SDS011;3286;49.858;8.768;2023-03-01T10:16:11;15.43;;;8.40;;
6505;SDS011;3286;49.858;8.768;2023-03-01T10:18:41;15.67;;;9.10;;
6505;SDS011;3286;49.858;8.768;2023-03-01T10:21:14;14.00;;;8.40;;
6505;SDS011;3286;49.858;8.768;2023-03-01T10:23:43;13.63;;;9.23;;
6505;SDS011;3286;49.858;8.768;2023-03-01T10:26:17;15.97;;;9.33;;
6505;SDS011;3286;49.858;8.768;2023-03-01T10:28:55;13.63;;;9.00;;
6505;SDS011;3286;49.858;8.768;2023-03-01T10:31:30;14.40;;;9.40;;
6505;SDS011;3286;49.858;8.768;2023-03-01T10:34:07;14.83;;;8.70;;
6505;SDS011;3286;49.858;8.768;2023-03-01T10:36:37;13.83;;;9.47;;
6505;SDS011;3286;49.858;8.768;2023-03-01T10:39:11;16.70;;;9.60;;
6505;SDS011;3286;49.858;8.768;2023-03-01T10:41:44;15.00;;;8.97;;
6505;SDS011;3286;49.858;8.768;2023-03-01T10:44:34;12.50;;;8.60;;
6505;SDS011;3286;49.858;8.768;2023-03-01T10:47:13;14.90;;;8.87;;
6505;SDS011;3286;49.858;8.768;2023-03-01T10:49:52;14.63;;;9.10;;
6505;SDS011;3286;49.858;8.768;2023-03-01T10:52:23;13.20;;;8.27;;
6505;SDS011;3286;49.858;8.768;2023-03-01T10:54:52;17.37;;;10.07;;
6505;SDS011;3286;49.858;8.768;2023-03-01T10:57:27;13.93;;;8.77;;
6505;SDS011;3286;49.858;8.768;2023-03-01T11:00:05;12.90;;;8.30;;
6505;SDS011;3286;49.858;8.768;2023-03-01T11:02:42;15.10;;;9.13;;
6505;SDS011;3286;49.858;8.768;2023-03-01T11:05:16;15.63;;;8.87;;
6505;SDS011;3286;49.858;8.768;2023-03-01T11:07:50;12.93;;;8.73;;
6505;SDS011;3286;49.858;8.768;2023-03-01T11:10:22;16.93;;;8.97;;
6505;SDS011;3286;49.858;8.768;2023-03-01T11:12:50;14.47;;;8.70;;
6505;SDS011;3286;49.858;8.768;2023-03-01T11:15:21;14.20;;;8.53;;
6505;SDS011;3286;49.858;8.768;2023-03-01T11:17:51;11.43;;;7.67;;
6505;SDS011;3286;49.858;8.768;2023-03-01T11:20:20;12.37;;;8.23;;
6505;SDS011;3286;49.858;8.768;2023-03-01T11:22:56;13.37;;;7.93;;
6505;SDS011;3286;49.858;8.768;2023-03-01T11:25:26;11.43;;;8.00;;
6505;SDS011;3286;49.858;8.768;2023-03-01T11:27:56;12.63;;;8.13;;
6505;SDS011;3286;49.858;8.768;2023-03-01T11:30:26;15.57;;;8.60;;
6505;SDS011;3286;49.858;8.768;2023-03-01T11:33:04;11.60;;;7.93;;
6505;SDS011;3286;49.858;8.768;2023-03-01T11:35:41;11.67;;;7.70;;
6505;SDS011;3286;49.858;8.768;2023-03-01T11:38:15;12.67;;;7.47;;
6505;SDS011;3286;49.858;8.768;2023-03-01T11:40:46;12.47;;;8.10;;
6505;SDS011;3286;49.858;8.768;2023-03-01T11:43:19;11.33;;;7.50;;
6505;SDS011;3286;49.858;8.768;2023-03-01T11:45:58;12.83;;;7.97;;
6505;SDS011;3286;49.858;8.768;2023-03-01T11:48:50;12.97;;;7.47;;
6505;SDS011;3286;49.858;8.768;2023-03-01T11:51:24;13.53;;;7.40;;
6505;SDS011;3286;49.858;8.768;2023-03-01T11:54:06;12.67;;;7.67;;
6505;SDS011;3286;49.858;8.768;2023-03-01T11:56:43;11.67;;;7.27;;
6505;SDS011;3286;49.858;8.768;2023-03-01T11:59:17;10.57;;;7.60;;
6505;SDS011;3286;49.858;8.768;2023-03-01T12:01:55;11.77;;;7.13;;
6505;SDS011;3286;49.858;8.768;2023-03-01T12:07:42;10.37;;;6.73;;
6505;SDS011;3286;49.858;8.768;2023-03-01T12:10:22;12.37;;;7.23;;
6505;SDS011;3286;49.858;8.768;2023-03-01T12:15:48;12.37;;;7.33;;
6505;SDS011;3286;49.858;8.768;2023-03-01T12:21:29;10.73;;;6.50;;
6505;SDS011;3286;49.858;8.768;2023-03-01T12:24:11;9.93;;;6.50;;
6505;SDS011;3286;49.858;8.768;2023-03-01T12:29:54;8.43;;;5.53;;
6505;SDS011;3286;49.858;8.768;2023-03-01T12:32:34;8.27;;;5.93;;
6505;SDS011;3286;49.858;8.768;2023-03-01T12:35:16;11.60;;;6.73;;
6505;SDS011;3286;49.858;8.768;2023-03-01T12:37:54;12.07;;;6.70;;
6505;SDS011;3286;49.858;8.768;2023-03-01T12:40:35;8.90;;;6.20;;
6505;SDS011;3286;49.858;8.768;2023-03-01T12:43:22;10.73;;;6.87;;
6505;SDS011;3286;49.858;8.768;2023-03-01T12:46:00;8.90;;;6.00;;
6505;SDS011;3286;49.858;8.768;2023-03-01T12:48:43;10.63;;;6.37;;
6505;SDS011;3286;49.858;8.768;2023-03-01T12:51:20;11.23;;;5.77;;
6505;SDS011;3286;49.858;8.768;2023-03-01T12:53:50;8.83;;;6.17;;
6505;SDS011;3286;49.858;8.768;2023-03-01T12:56:18;11.63;;;5.70;;
6505;SDS011;3286;49.858;8.768;2023-03-01T12:58:51;10.50;;;5.83;;
6505;SDS011;3286;49.858;8.768;2023-03-01T13:01:29;9.77;;;5.77;;
6505;SDS011;3286;49.858;8.768;2023-03-01T13:04:03;9.13;;;6.07;;
6505;SDS011;3286;49.858;8.768;2023-03-01T13:06:39;10.87;;;6.73;;
6505;SDS011;3286;49.858;8.768;2023-03-01T13:09:13;10.77;;;6.27;;
6505;SDS011;3286;49.858;8.768;2023-03-01T13:11:46;7.60;;;5.57;;
6505;SDS011;3286;49.858;8.768;2023-03-01T13:20:12;8.37;;;5.90;;
6505;SDS011;3286;49.858;8.768;2023-03-01T13:22:40;8.13;;;5.83;;
6505;SDS011;3286;49.858;8.768;2023-03-01T13:25:15;11.87;;;6.07;;
6505;SDS011;3286;49.858;8.768;2023-03-01T13:27:43;10.70;;;5.63;;
6505;SDS011;3286;49.858;8.768;2023-03-01T13:36:08;10.03;;;5.30;;
6505;SDS011;3286;49.858;8.768;2023-03-01T13:38:45;10.53;;;5.97;;
6505;SDS011;3286;49.858;8.768;2023-03-01T13:41:13;9.20;;;5.50;;
6505;SDS011;3286;49.858;8.768;2023-03-01T13:43:40;7.73;;;5.90;;
6505;SDS011;3286;49.858;8.768;2023-03-01T13:46:10;11.50;;;6.07;;
6505;SDS011;3286;49.858;8.768;2023-03-01T13:48:41;10.90;;;5.70;;
6505;SDS011;3286;49.858;8.768;2023-03-01T13:51:10;9.40;;;5.77;;
6505;SDS011;3286;49.858;8.768;2023-03-01T13:53:40;8.53;;;5.60;;
6505;SDS011;3286;49.858;8.768;2023-03-01T13:56:11;9.20;;;5.73;;
6505;SDS011;3286;49.858;8.768;2023-03-01T13:58:48;7.07;;;5.00;;
6505;SDS011;3286;49.858;8.768;2023-03-01T14:01:28;8.47;;;5.27;;
6505;SDS011;3286;49.858;8.768;2023-03-01T14:03:56;9.70;;;5.47;;
6505;SDS011;3286;49.858;8.768;2023-03-01T14:06:24;7.03;;;5.33;;
6505;SDS011;3286;49.858;8.768;2023-03-01T14:08:52;8.13;;;4.97;;
6505;SDS011;3286;49.858;8.768;2023-03-01T14:14:48;7.07;;;4.90;;
6505;SDS011;3286;49.858;8.768;2023-03-01T14:17:29;6.80;;;5.00;;
6505;SDS011;3286;49.858;8.768;2023-03-01T14:20:17;9.00;;;4.80;;
6505;SDS011;3286;49.858;8.768;2023-03-01T14:22:47;7.97;;;4.83;;
6505;SDS011;3286;49.858;8.768;2023-03-01T14:25:26;10.20;;;5.20;;
6505;SDS011;3286;49.858;8.768;2023-03-01T14:27:56;8.27;;;5.60;;
6505;SDS011;3286;49.858;8.768;2023-03-01T14:30:26;9.20;;;5.60;;
6505;SDS011;3286;49.858;8.768;2023-03-01T14:32:58;9.87;;;5.20;;
6505;SDS011;3286;49.858;8.768;2023-03-01T14:35:26;8.80;;;5.13;;
6505;SDS011;3286;49.858;8.768;2023-03-01T14:37:54;7.73;;;4.83;;
6505;SDS011;3286;49.858;8.768;2023-03-01T14:40:24;8.20;;;4.90;;
6505;SDS011;3286;49.858;8.768;2023-03-01T14:42:53;10.20;;;5.57;;
6505;SDS011;3286;49.858;8.768;2023-03-01T14:45:23;9.53;;;5.70;;
6505;SDS011;3286;49.858;8.768;2023-03-01T14:47:52;8.03;;;5.47;;
6505;SDS011;3286;49.858;8.768;2023-03-01T14:50:23;10.77;;;5.93;;
6505;SDS011;3286;49.858;8.768;2023-03-01T14:52:53;8.67;;;5.77;;
6505;SDS011;3286;49.858;8.768;2023-03-01T14:55:25;9.07;;;5.33;;
6505;SDS011;3286;49.858;8.768;2023-03-01T14:57:53;8.50;;;5.83;;
6505;SDS011;3286;49.858;8.768;2023-03-01T15:00:20;11.63;;;6.57;;
6505;SDS011;3286;49.858;8.768;2023-03-01T15:02:50;11.90;;;5.73;;
6505;SDS011;3286;49.858;8.768;2023-03-01T15:05:18;9.33;;;5.67;;
6505;SDS011;3286;49.858;8.768;2023-03-01T15:07:53;9.70;;;6.60;;
6505;SDS011;3286;49.858;8.768;2023-03-01T15:10:21;10.43;;;6.67;;
6505;SDS011;3286;49.858;8.768;2023-03-01T15:12:50;10.23;;;6.70;;
6505;SDS011;3286;49.858;8.768;2023-03-01T15:15:22;8.73;;;6.23;;
6505;SDS011;3286;49.858;8.768;2023-03-01T15:18:13;10.13;;;6.73;;
6505;SDS011;3286;49.858;8.768;2023-03-01T15:20:44;10.00;;;6.30;;
6505;SDS011;3286;49.858;8.768;2023-03-01T15:23:22;10.53;;;6.07;;
6505;SDS011;3286;49.858;8.768;2023-03-01T15:25:50;10.43;;;6.30;;
6505;SDS011;3286;49.858;8.768;2023-03-01T15:28:22;12.57;;;6.30;;
6505;SDS011;3286;49.858;8.768;2023-03-01T15:30:54;15.77;;;6.87;;
6505;SDS011;3286;49.858;8.768;2023-03-01T15:33:33;10.33;;;6.23;;
6505;SDS011;3286;49.858;8.768;2023-03-01T15:36:04;11.10;;;6.27;;
6505;SDS011;3286;49.858;8.768;2023-03-01T15:38:59;11.80;;;5.57;;
6505;SDS011;3286;49.858;8.768;2023-03-01T15:41:27;16.73;;;6.63;;
6505;SDS011;3286;49.858;8.768;2023-03-01T15:43:56;12.63;;;6.47;;
6505;SDS011;3286;49.858;8.768;2023-03-01T15:46:25;8.80;;;6.10;;
6505;SDS011;3286;49.858;8.768;2023-03-01T15:48:55;12.33;;;6.23;;